sensor_id;sensor_type;location;lat;lon;timestamp;P1;durP1;ratioP1;P2;durP2;ratioP2
41861;SDS011;27537;57.134;-2.136;2023-04-15T00:00:57;20.15;;;5.30;;
41861;SDS011;27537;57.134;-2.136;2023-04-15T00:03:25;18.25;;;5.30;;
41861;SDS011;27537;57.134;-2.136;2023-04-15T00:05:52;18.70;;;4.95;;
41861;SDS011;27537;57.134;-2.136;2023-04-15T00:08:19;19.05;;;5.22;;
41861;SDS011;27537;57.134;-2.136;2023-04-15T00:10:45;12.98;;;4.75;;
41861;SDS011;27537;57.134;-2.136;2023-04-15T00:13:13;15.43;;;4.15;;
41861;SDS011;27537;57.134;-2.136;2023-04-15T00:15:40;20.15;;;5.50;;
41861;SDS011;27537;57.134;-2.136;2023-04-15T00:18:08;15.15;;;4.32;;
41861;SDS011;27537;57.134;-2.136;2023-04-15T00:20:35;20.38;;;6.25;;
41861;SDS011;27537;57.134;-2.136;2023-04-15T00:23:03;20.60;;;5.50;;
41861;SDS011;27537;57.134;-2.136;2023-04-15T00:25:30;16.70;;;6.15;;
41861;SDS011;27537;57.134;-2.136;2023-04-15T00:27:57;13.98;;;4.80;;
41861;SDS011;27537;57.134;-2.136;2023-04-15T00:30:24;17.58;;;5.75;;
41861;SDS011;27537;57.134;-2.136;2023-04-15T00:32:52;17.33;;;5.57;;
41861;SDS011;27537;57.134;-2.136;2023-04-15T00:35:19;14.30;;;4.75;;
41861;SDS011;27537;57.134;-2.136;2023-04-15T00:37:46;22.30;;;7.53;;
41861;SDS011;27537;57.134;-2.136;2023-04-15T00:40:12;17.48;;;6.18;;
41861;SDS011;27537;57.134;-2.136;2023-04-15T00:42:44;18.65;;;6.13;;
41861;SDS011;27537;57.134;-2.136;2023-04-15T00:45:11;13.70;;;6.10;;
41861;SDS011;27537;57.134;-2.136;2023-04-15T00:47:38;14.63;;;3.80;;
41861;SDS011;27537;57.134;-2.136;2023-04-15T00:50:07;14.98;;;5.80;;
41861;SDS011;27537;57.134;-2.136;2023-04-15T00:52:34;14.52;;;4.78;;
41861;SDS011;27537;57.134;-2.136;2023-04-15T00:55:02;14.90;;;5.25;;
41861;SDS011;27537;57.134;-2.136;2023-04-15T00:57:30;12.48;;;4.15;;
41861;SDS011;27537;57.134;-2.136;2023-04-15T00:59:57;16.30;;;5.47;;
41861;SDS011;27537;57.134;-2.136;2023-04-15T01:02:23;14.15;;;5.43;;
41861;SDS011;27537;57.134;-2.136;2023-04-15T01:04:50;10.15;;;3.60;;
41861;SDS011;27537;57.134;-2.136;2023-04-15T01:07:17;7.82;;;2.90;;
41861;SDS011;27537;57.134;-2.136;2023-04-15T01:09:44;10.02;;;3.33;;
41861;SDS011;27537;57.134;-2.136;2023-04-15T01:12:12;8.05;;;2.85;;
41861;SDS011;27537;57.134;-2.136;2023-04-15T01:14:40;8.75;;;2.85;;
41861;SDS011;27537;57.134;-2.136;2023-04-15T01:17:07;8.38;;;2.97;;
41861;SDS011;27537;57.134;-2.136;2023-04-15T01:19:37;8.48;;;2.53;;
41861;SDS011;27537;57.134;-2.136;2023-04-15T01:22:05;9.63;;;3.15;;
41861;SDS011;27537;57.134;-2.136;2023-04-15T01:24:31;12.68;;;4.85;;
41861;SDS011;27537;57.134;-2.136;2023-04-15T01:26:59;10.63;;;4.07;;
41861;SDS011;27537;57.134;-2.136;2023-04-15T01:29:26;8.93;;;3.10;;
41861;SDS011;27537;57.134;-2.136;2023-04-15T01:31:53;11.27;;;3.72;;
41861;SDS011;27537;57.134;-2.136;2023-04-15T01:34:22;9.15;;;3.00;;
41861;SDS011;27537;57.134;-2.136;2023-04-15T01:36:48;13.40;;;3.75;;
41861;SDS011;27537;57.134;-2.136;2023-04-15T01:39:15;9.50;;;4.05;;
41861;SDS011;27537;57.134;-2.136;2023-04-15T01:41:42;10.88;;;3.40;;
41861;SDS011;27537;57.134;-2.136;2023-04-15T01:44:09;12.73;;;4.18;;
41861;SDS011;27537;57.134;-2.136;2023-04-15T01:46:36;14.50;;;4.45;;
41861;SDS011;27537;57.134;-2.136;2023-04-15T01:49:03;10.88;;;3.80;;
41861;SDS011;27537;57.134;-2.136;2023-04-15T01:51:30;16.52;;;4.05;;
41861;SDS011;27537;57.134;-2.136;2023-04-15T01:53:57;9.55;;;3.42;;
41861;SDS011;27537;57.134;-2.136;2023-04-15T01:56:24;10.98;;;3.53;;
41861;SDS011;27537;57.134;-2.136;2023-04-15T01:58:51;10.80;;;3.22;;
41861;SDS011;27537;57.134;-2.136;2023-04-15T02:01:18;9.30;;;3.13;;
41861;SDS011;27537;57.134;-2.136;2023-04-15T02:03:45;11.88;;;4.30;;
41861;SDS011;27537;57.134;-2.136;2023-04-15T02:06:13;10.27;;;3.15;;
41861;SDS011;27537;57.134;-2.136;2023-04-15T02:08:40;11.32;;;3.90;;
41861;SDS011;27537;57.134;-2.136;2023-04-15T02:11:07;11.32;;;3.67;;
41861;SDS011;27537;57.134;-2.136;2023-04-15T02:13:34;11.40;;;4.47;;
41861;SDS011;27537;57.134;-2.136;2023-04-15T02:16:01;13.13;;;3.88;;
41861;SDS011;27537;57.134;-2.136;2023-04-15T02:18:28;8.18;;;3.03;;
41861;SDS011;27537;57.134;-2.136;2023-04-15T02:20:56;11.65;;;3.25;;
41861;SDS011;27537;57.134;-2.136;2023-04-15T02:23:24;10.00;;;3.08;;
41861;SDS011;27537;57.134;-2.136;2023-04-15T02:25:51;11.23;;;4.20;;
41861;SDS011;27537;57.134;-2.136;2023-04-15T02:28:20;12.10;;;4.38;;
41861;SDS011;27537;57.134;-2.136;2023-04-15T02:30:47;14.27;;;4.40;;
41861;SDS011;27537;57.134;-2.136;2023-04-15T02:33:18;8.57;;;3.38;;
41861;SDS011;27537;57.134;-2.136;2023-04-15T02:35:45;11.90;;;3.45;;
41861;SDS011;27537;57.134;-2.136;2023-04-15T02:38:12;9.57;;;3.20;;
41861;SDS011;27537;57.134;-2.136;2023-04-15T02:40:42;10.30;;;3.10;;
41861;SDS011;27537;57.134;-2.136;2023-04-15T02:43:09;10.15;;;3.20;;
41861;SDS011;27537;57.134;-2.136;2023-04-15T02:45:36;9.82;;;3.50;;
41861;SDS011;27537;57.134;-2.136;2023-04-15T02:48:03;8.77;;;3.63;;
41861;SDS011;27537;57.134;-2.136;2023-04-15T02:50:32;11.13;;;3.90;;
41861;SDS011;27537;57.134;-2.136;2023-04-15T02:52:59;10.43;;;4.13;;
41861;SDS011;27537;57.134;-2.136;2023-04-15T02:55:30;7.88;;;3.15;;
41861;SDS011;27537;57.134;-2.136;2023-04-15T02:57:57;11.40;;;4.47;;
41861;SDS011;27537;57.134;-2.136;2023-04-15T03:00:26;10.40;;;3.22;;
41861;SDS011;27537;57.134;-2.136;2023-04-15T03:02:56;11.93;;;3.90;;
41861;SDS011;27537;57.134;-2.136;2023-04-15T03:05:25;14.77;;;3.70;;
41861;SDS011;27537;57.134;-2.136;2023-04-15T03:07:52;12.75;;;4.20;;
41861;SDS011;27537;57.134;-2.136;2023-04-15T03:10:19;10.45;;;3.78;;
41861;SDS011;27537;57.134;-2.136;2023-04-15T03:12:47;10.88;;;3.40;;
41861;SDS011;27537;57.134;-2.136;2023-04-15T03:15:14;11.68;;;3.97;;
41861;SDS011;27537;57.134;-2.136;2023-04-15T03:17:41;13.95;;;3.85;;
41861;SDS011;27537;57.134;-2.136;2023-04-15T03:20:07;12.55;;;3.92;;
41861;SDS011;27537;57.134;-2.136;2023-04-15T03:22:35;11.77;;;4.07;;
41861;SDS011;27537;57.134;-2.136;2023-04-15T03:25:02;15.90;;;4.70;;
41861;SDS011;27537;57.134;-2.136;2023-04-15T03:27:29;15.48;;;4.53;;
41861;SDS011;27537;57.134;-2.136;2023-04-15T03:29:56;13.82;;;5.63;;
41861;SDS011;27537;57.134;-2.136;2023-04-15T03:32:23;17.83;;;6.22;;
41861;SDS011;27537;57.134;-2.136;2023-04-15T03:34:49;13.43;;;4.85;;
41861;SDS011;27537;57.134;-2.136;2023-04-15T03:37:16;9.32;;;3.88;;
41861;SDS011;27537;57.134;-2.136;2023-04-15T03:39:43;9.85;;;4.50;;
41861;SDS011;27537;57.134;-2.136;2023-04-15T03:42:10;9.02;;;3.33;;
41861;SDS011;27537;57.134;-2.136;2023-04-15T03:44:37;11.70;;;5.00;;
41861;SDS011;27537;57.134;-2.136;2023-04-15T03:47:03;11.55;;;4.55;;
41861;SDS011;27537;57.134;-2.136;2023-04-15T03:49:30;11.55;;;4.55;;
41861;SDS011;27537;57.134;-2.136;2023-04-15T03:51:57;14.52;;;4.75;;
41861;SDS011;27537;57.134;-2.136;2023-04-15T03:54:24;13.02;;;5.20;;
41861;SDS011;27537;57.134;-2.136;2023-04-15T03:56:51;13.27;;;5.35;;
41861;SDS011;27537;57.134;-2.136;2023-04-15T03:59:18;12.15;;;5.00;;
41861;SDS011;27537;57.134;-2.136;2023-04-15T04:01:45;10.48;;;4.35;;
41861;SDS011;27537;57.134;-2.136;2023-04-15T04:04:12;12.23;;;5.13;;
41861;SDS011;27537;57.134;-2.136;2023-04-15T04:06:39;12.73;;;6.18;;
41861;SDS011;27537;57.134;-2.136;2023-04-15T04:09:06;13.60;;;5.05;;
41861;SDS011;27537;57.134;-2.136;2023-04-15T04:11:33;16.27;;;6.63;;
41861;SDS011;27537;57.134;-2.136;2023-04-15T04:13:59;16.25;;;5.95;;
41861;SDS011;27537;57.134;-2.136;2023-04-15T04:16:26;19.90;;;7.30;;
41861;SDS011;27537;57.134;-2.136;2023-04-15T04:18:53;15.73;;;7.03;;
41861;SDS011;27537;57.134;-2.136;2023-04-15T04:21:20;17.02;;;8.13;;
41861;SDS011;27537;57.134;-2.136;2023-04-15T04:23:47;16.48;;;6.78;;
41861;SDS011;27537;57.134;-2.136;2023-04-15T04:26:14;15.23;;;6.90;;
41861;SDS011;27537;57.134;-2.136;2023-04-15T04:28:41;14.18;;;5.72;;
41861;SDS011;27537;57.134;-2.136;2023-04-15T04:31:08;18.48;;;8.50;;
41861;SDS011;27537;57.134;-2.136;2023-04-15T04:33:35;22.45;;;10.55;;
41861;SDS011;27537;57.134;-2.136;2023-04-15T04:36:02;22.55;;;11.02;;
41861;SDS011;27537;57.134;-2.136;2023-04-15T04:38:29;31.25;;;12.52;;
41861;SDS011;27537;57.134;-2.136;2023-04-15T04:40:56;35.60;;;15.52;;
41861;SDS011;27537;57.134;-2.136;2023-04-15T04:43:22;34.95;;;15.43;;
41861;SDS011;27537;57.134;-2.136;2023-04-15T04:45:49;31.40;;;15.32;;
41861;SDS011;27537;57.134;-2.136;2023-04-15T04:48:16;28.38;;;13.30;;
41861;SDS011;27537;57.134;-2.136;2023-04-15T04:50:43;21.90;;;10.73;;
41861;SDS011;27537;57.134;-2.136;2023-04-15T04:53:12;21.33;;;10.23;;
41861;SDS011;27537;57.134;-2.136;2023-04-15T04:55:39;25.13;;;12.15;;
41861;SDS011;27537;57.134;-2.136;2023-04-15T04:58:05;47.67;;;16.15;;
41861;SDS011;27537;57.134;-2.136;2023-04-15T05:00:32;27.98;;;13.15;;
41861;SDS011;27537;57.134;-2.136;2023-04-15T05:02:59;31.13;;;13.98;;
41861;SDS011;27537;57.134;-2.136;2023-04-15T05:05:26;32.70;;;15.82;;
41861;SDS011;27537;57.134;-2.136;2023-04-15T05:07:53;35.72;;;15.30;;
41861;SDS011;27537;57.134;-2.136;2023-04-15T05:10:20;38.15;;;17.55;;
41861;SDS011;27537;57.134;-2.136;2023-04-15T05:12:47;35.00;;;16.17;;
41861;SDS011;27537;57.134;-2.136;2023-04-15T05:15:13;33.65;;;15.77;;
41861;SDS011;27537;57.134;-2.136;2023-04-15T05:17:40;29.88;;;14.90;;
41861;SDS011;27537;57.134;-2.136;2023-04-15T05:20:07;24.38;;;13.55;;
41861;SDS011;27537;57.134;-2.136;2023-04-15T05:22:34;24.02;;;12.68;;
41861;SDS011;27537;57.134;-2.136;2023-04-15T05:25:02;23.20;;;12.88;;
41861;SDS011;27537;57.134;-2.136;2023-04-15T05:27:29;29.83;;;14.75;;
41861;SDS011;27537;57.134;-2.136;2023-04-15T05:29:56;30.77;;;15.40;;
41861;SDS011;27537;57.134;-2.136;2023-04-15T05:32:24;36.53;;;19.38;;
41861;SDS011;27537;57.134;-2.136;2023-04-15T05:34:51;40.65;;;18.80;;
41861;SDS011;27537;57.134;-2.136;2023-04-15T05:37:17;37.90;;;19.02;;
41861;SDS011;27537;57.134;-2.136;2023-04-15T05:39:47;46.03;;;19.27;;
41861;SDS011;27537;57.134;-2.136;2023-04-15T05:42:14;28.05;;;15.25;;
41861;SDS011;27537;57.134;-2.136;2023-04-15T05:44:41;30.48;;;16.92;;
41861;SDS011;27537;57.134;-2.136;2023-04-15T05:47:08;27.42;;;15.13;;
41861;SDS011;27537;57.134;-2.136;2023-04-15T05:49:35;29.48;;;16.08;;
41861;SDS011;27537;57.134;-2.136;2023-04-15T05:52:02;33.45;;;17.15;;
41861;SDS011;27537;57.134;-2.136;2023-04-15T05:54:29;30.85;;;16.98;;
41861;SDS011;27537;57.134;-2.136;2023-04-15T05:56:56;30.35;;;16.30;;
41861;SDS011;27537;57.134;-2.136;2023-04-15T05:59:24;38.05;;;21.17;;
41861;SDS011;27537;57.134;-2.136;2023-04-15T06:01:51;47.33;;;26.20;;
41861;SDS011;27537;57.134;-2.136;2023-04-15T06:04:18;48.78;;;24.80;;
41861;SDS011;27537;57.134;-2.136;2023-04-15T06:06:45;39.95;;;18.33;;
41861;SDS011;27537;57.134;-2.136;2023-04-15T06:09:12;50.42;;;27.23;;
41861;SDS011;27537;57.134;-2.136;2023-04-15T06:11:39;47.72;;;25.45;;
41861;SDS011;27537;57.134;-2.136;2023-04-15T06:14:06;59.38;;;30.42;;
41861;SDS011;27537;57.134;-2.136;2023-04-15T06:16:33;47.63;;;27.30;;
41861;SDS011;27537;57.134;-2.136;2023-04-15T06:19:02;57.75;;;32.17;;
41861;SDS011;27537;57.134;-2.136;2023-04-15T06:21:29;63.72;;;31.38;;
41861;SDS011;27537;57.134;-2.136;2023-04-15T06:23:57;68.57;;;31.35;;
41861;SDS011;27537;57.134;-2.136;2023-04-15T06:26:26;59.50;;;32.40;;
41861;SDS011;27537;57.134;-2.136;2023-04-15T06:28:53;52.60;;;28.17;;
41861;SDS011;27537;57.134;-2.136;2023-04-15T06:31:20;41.60;;;21.95;;
41861;SDS011;27537;57.134;-2.136;2023-04-15T06:33:48;38.85;;;22.67;;
41861;SDS011;27537;57.134;-2.136;2023-04-15T06:36:14;46.55;;;25.20;;
41861;SDS011;27537;57.134;-2.136;2023-04-15T06:38:41;33.72;;;18.25;;
41861;SDS011;27537;57.134;-2.136;2023-04-15T06:41:08;31.25;;;15.05;;
41861;SDS011;27537;57.134;-2.136;2023-04-15T06:43:35;25.92;;;14.73;;
41861;SDS011;27537;57.134;-2.136;2023-04-15T06:46:01;33.67;;;19.17;;
41861;SDS011;27537;57.134;-2.136;2023-04-15T06:48:29;36.80;;;19.92;;
41861;SDS011;27537;57.134;-2.136;2023-04-15T06:50:55;31.35;;;15.95;;
41861;SDS011;27537;57.134;-2.136;2023-04-15T06:53:26;33.75;;;16.95;;
41861;SDS011;27537;57.134;-2.136;2023-04-15T06:55:53;26.67;;;16.13;;
41861;SDS011;27537;57.134;-2.136;2023-04-15T06:58:20;26.52;;;13.93;;
41861;SDS011;27537;57.134;-2.136;2023-04-15T07:00:47;25.08;;;14.35;;
41861;SDS011;27537;57.134;-2.136;2023-04-15T07:03:14;19.35;;;10.55;;
41861;SDS011;27537;57.134;-2.136;2023-04-15T07:05:41;17.00;;;8.50;;
41861;SDS011;27537;57.134;-2.136;2023-04-15T07:08:08;13.43;;;6.38;;
41861;SDS011;27537;57.134;-2.136;2023-04-15T07:10:35;14.20;;;7.07;;
41861;SDS011;27537;57.134;-2.136;2023-04-15T07:13:02;17.17;;;8.65;;
41861;SDS011;27537;57.134;-2.136;2023-04-15T07:15:29;14.38;;;7.95;;
41861;SDS011;27537;57.134;-2.136;2023-04-15T07:17:56;20.88;;;12.52;;
41861;SDS011;27537;57.134;-2.136;2023-04-15T07:20:23;27.63;;;15.05;;
41861;SDS011;27537;57.134;-2.136;2023-04-15T07:22:50;16.17;;;7.43;;
41861;SDS011;27537;57.134;-2.136;2023-04-15T07:25:17;19.67;;;10.75;;
41861;SDS011;27537;57.134;-2.136;2023-04-15T07:27:44;18.35;;;10.50;;
41861;SDS011;27537;57.134;-2.136;2023-04-15T07:30:11;8.68;;;3.70;;
41861;SDS011;27537;57.134;-2.136;2023-04-15T07:32:38;9.65;;;4.38;;
41861;SDS011;27537;57.134;-2.136;2023-04-15T07:35:05;7.85;;;2.97;;
41861;SDS011;27537;57.134;-2.136;2023-04-15T07:37:33;8.25;;;3.22;;
41861;SDS011;27537;57.134;-2.136;2023-04-15T07:39:59;7.78;;;2.85;;
41861;SDS011;27537;57.134;-2.136;2023-04-15T07:42:26;10.02;;;3.13;;
41861;SDS011;27537;57.134;-2.136;2023-04-15T07:44:54;8.38;;;2.88;;
41861;SDS011;27537;57.134;-2.136;2023-04-15T07:47:21;7.20;;;2.97;;
41861;SDS011;27537;57.134;-2.136;2023-04-15T07:49:48;7.75;;;2.70;;
41861;SDS011;27537;57.134;-2.136;2023-04-15T07:52:16;10.63;;;3.72;;
41861;SDS011;27537;57.134;-2.136;2023-04-15T07:54:44;7.45;;;2.70;;
41861;SDS011;27537;57.134;-2.136;2023-04-15T07:57:10;7.20;;;2.55;;
41861;SDS011;27537;57.134;-2.136;2023-04-15T07:59:37;8.13;;;3.25;;
41861;SDS011;27537;57.134;-2.136;2023-04-15T08:02:04;7.25;;;2.70;;
41861;SDS011;27537;57.134;-2.136;2023-04-15T08:04:31;8.45;;;3.20;;
41861;SDS011;27537;57.134;-2.136;2023-04-15T08:06:59;9.02;;;4.00;;
41861;SDS011;27537;57.134;-2.136;2023-04-15T08:09:26;8.82;;;3.67;;
41861;SDS011;27537;57.134;-2.136;2023-04-15T08:11:52;6.60;;;2.55;;
41861;SDS011;27537;57.134;-2.136;2023-04-15T08:14:19;6.65;;;2.47;;
41861;SDS011;27537;57.134;-2.136;2023-04-15T08:16:46;9.82;;;2.85;;
41861;SDS011;27537;57.134;-2.136;2023-04-15T08:19:13;7.40;;;2.33;;
41861;SDS011;27537;57.134;-2.136;2023-04-15T08:21:40;8.48;;;3.00;;
41861;SDS011;27537;57.134;-2.136;2023-04-15T08:24:07;7.43;;;2.63;;
41861;SDS011;27537;57.134;-2.136;2023-04-15T08:26:34;9.15;;;3.03;;
41861;SDS011;27537;57.134;-2.136;2023-04-15T08:29:01;6.38;;;2.38;;
41861;SDS011;27537;57.134;-2.136;2023-04-15T08:31:28;8.50;;;2.25;;
41861;SDS011;27537;57.134;-2.136;2023-04-15T08:33:56;7.43;;;2.22;;
41861;SDS011;27537;57.134;-2.136;2023-04-15T08:36:23;6.82;;;2.30;;
41861;SDS011;27537;57.134;-2.136;2023-04-15T08:38:49;5.95;;;1.75;;
41861;SDS011;27537;57.134;-2.136;2023-04-15T08:43:45;5.18;;;1.80;;
41861;SDS011;27537;57.134;-2.136;2023-04-15T08:46:17;8.38;;;2.40;;
41861;SDS011;27537;57.134;-2.136;2023-04-15T08:48:44;9.05;;;2.38;;
41861;SDS011;27537;57.134;-2.136;2023-04-15T08:51:13;7.18;;;2.20;;
41861;SDS011;27537;57.134;-2.136;2023-04-15T08:53:42;6.72;;;2.58;;
41861;SDS011;27537;57.134;-2.136;2023-04-15T08:56:09;7.95;;;2.20;;
41861;SDS011;27537;57.134;-2.136;2023-04-15T08:58:39;8.77;;;2.50;;
41861;SDS011;27537;57.134;-2.136;2023-04-15T09:01:06;11.70;;;3.53;;
41861;SDS011;27537;57.134;-2.136;2023-04-15T09:03:34;10.20;;;3.13;;
41861;SDS011;27537;57.134;-2.136;2023-04-15T09:06:03;7.15;;;2.60;;
41861;SDS011;27537;57.134;-2.136;2023-04-15T09:08:31;10.35;;;3.25;;
41861;SDS011;27537;57.134;-2.136;2023-04-15T09:11:00;10.02;;;2.70;;
41861;SDS011;27537;57.134;-2.136;2023-04-15T09:13:28;9.95;;;2.78;;
41861;SDS011;27537;57.134;-2.136;2023-04-15T09:15:55;9.77;;;2.95;;
41861;SDS011;27537;57.134;-2.136;2023-04-15T09:23:37;8.60;;;2.65;;
41861;SDS011;27537;57.134;-2.136;2023-04-15T09:26:04;11.50;;;3.00;;
41861;SDS011;27537;57.134;-2.136;2023-04-15T09:28:31;8.63;;;2.83;;
41861;SDS011;27537;57.134;-2.136;2023-04-15T09:30:59;12.27;;;3.17;;
41861;SDS011;27537;57.134;-2.136;2023-04-15T09:33:26;10.20;;;3.63;;
41861;SDS011;27537;57.134;-2.136;2023-04-15T09:35:55;9.73;;;2.70;;
41861;SDS011;27537;57.134;-2.136;2023-04-15T09:38:53;9.23;;;3.63;;
41861;SDS011;27537;57.134;-2.136;2023-04-15T09:41:25;13.07;;;3.50;;
41861;SDS011;27537;57.134;-2.136;2023-04-15T09:43:52;10.30;;;3.47;;
41861;SDS011;27537;57.134;-2.136;2023-04-15T09:46:19;8.95;;;3.15;;
41861;SDS011;27537;57.134;-2.136;2023-04-15T09:48:46;12.10;;;3.05;;
41861;SDS011;27537;57.134;-2.136;2023-04-15T09:51:33;11.13;;;3.50;;
41861;SDS011;27537;57.134;-2.136;2023-04-15T09:54:01;7.72;;;2.88;;
41861;SDS011;27537;57.134;-2.136;2023-04-15T09:56:35;15.82;;;3.95;;
41861;SDS011;27537;57.134;-2.136;2023-04-15T09:59:04;9.70;;;3.28;;
41861;SDS011;27537;57.134;-2.136;2023-04-15T10:01:31;13.63;;;4.30;;
41861;SDS011;27537;57.134;-2.136;2023-04-15T10:03:58;10.25;;;2.90;;
41861;SDS011;27537;57.134;-2.136;2023-04-15T10:06:32;13.55;;;3.95;;
41861;SDS011;27537;57.134;-2.136;2023-04-15T10:09:00;13.20;;;4.30;;
41861;SDS011;27537;57.134;-2.136;2023-04-15T10:11:27;10.70;;;2.88;;
41861;SDS011;27537;57.134;-2.136;2023-04-15T10:13:56;10.73;;;3.42;;
41861;SDS011;27537;57.134;-2.136;2023-04-15T10:16:25;10.07;;;2.40;;
41861;SDS011;27537;57.134;-2.136;2023-04-15T10:18:54;7.47;;;2.80;;
41861;SDS011;27537;57.134;-2.136;2023-04-15T10:21:22;11.45;;;3.25;;
41861;SDS011;27537;57.134;-2.136;2023-04-15T10:23:49;13.50;;;3.30;;
41861;SDS011;27537;57.134;-2.136;2023-04-15T10:26:17;9.43;;;3.17;;
41861;SDS011;27537;57.134;-2.136;2023-04-15T10:28:45;12.73;;;3.83;;
41861;SDS011;27537;57.134;-2.136;2023-04-15T10:31:15;11.20;;;2.90;;
41861;SDS011;27537;57.134;-2.136;2023-04-15T10:33:43;7.75;;;2.83;;
41861;SDS011;27537;57.134;-2.136;2023-04-15T10:36:12;10.75;;;2.78;;
41861;SDS011;27537;57.134;-2.136;2023-04-15T10:38:41;9.75;;;2.65;;
41861;SDS011;27537;57.134;-2.136;2023-04-15T10:41:25;11.68;;;2.97;;
41861;SDS011;27537;57.134;-2.136;2023-04-15T10:44:03;10.30;;;3.20;;
41861;SDS011;27537;57.134;-2.136;2023-04-15T10:49:08;7.93;;;2.70;;
41861;SDS011;27537;57.134;-2.136;2023-04-15T10:51:41;11.98;;;2.50;;
41861;SDS011;27537;57.134;-2.136;2023-04-15T10:56:52;11.32;;;2.75;;
41861;SDS011;27537;57.134;-2.136;2023-04-15T11:00:17;13.20;;;3.15;;
41861;SDS011;27537;57.134;-2.136;2023-04-15T11:05:12;12.02;;;3.38;;
41861;SDS011;27537;57.134;-2.136;2023-04-15T11:12:52;14.43;;;3.55;;
41861;SDS011;27537;57.134;-2.136;2023-04-15T11:18:20;6.55;;;1.92;;
41861;SDS011;27537;57.134;-2.136;2023-04-15T11:20:50;8.50;;;2.50;;
41861;SDS011;27537;57.134;-2.136;2023-04-15T11:26:07;9.18;;;2.00;;
41861;SDS011;27537;57.134;-2.136;2023-04-15T11:28:38;11.48;;;3.00;;
41861;SDS011;27537;57.134;-2.136;2023-04-15T11:31:07;8.13;;;2.08;;
41861;SDS011;27537;57.134;-2.136;2023-04-15T11:33:52;10.00;;;2.50;;
41861;SDS011;27537;57.134;-2.136;2023-04-15T11:36:24;9.27;;;3.08;;
41861;SDS011;27537;57.134;-2.136;2023-04-15T11:38:53;9.57;;;2.75;;
41861;SDS011;27537;57.134;-2.136;2023-04-15T11:41:21;10.90;;;2.50;;
41861;SDS011;27537;57.134;-2.136;2023-04-15T11:43:49;9.10;;;2.03;;
41861;SDS011;27537;57.134;-2.136;2023-04-15T11:46:16;9.52;;;2.40;;
41861;SDS011;27537;57.134;-2.136;2023-04-15T11:48:44;7.78;;;1.90;;
41861;SDS011;27537;57.134;-2.136;2023-04-15T11:51:12;8.30;;;2.30;;
41861;SDS011;27537;57.134;-2.136;2023-04-15T11:56:08;9.10;;;2.20;;
41861;SDS011;27537;57.134;-2.136;2023-04-15T11:58:38;12.25;;;2.65;;
41861;SDS011;27537;57.134;-2.136;2023-04-15T12:01:05;10.88;;;2.70;;
41861;SDS011;27537;57.134;-2.136;2023-04-15T12:11:32;7.50;;;2.10;;
41861;SDS011;27537;57.134;-2.136;2023-04-15T12:16:39;7.20;;;2.13;;
41861;SDS011;27537;57.134;-2.136;2023-04-15T12:19:27;14.95;;;2.88;;
41861;SDS011;27537;57.134;-2.136;2023-04-15T12:21:59;5.78;;;1.80;;
41861;SDS011;27537;57.134;-2.136;2023-04-15T12:24:30;11.03;;;2.00;;
41861;SDS011;27537;57.134;-2.136;2023-04-15T12:27:00;5.50;;;1.50;;
41861;SDS011;27537;57.134;-2.136;2023-04-15T12:29:29;7.35;;;1.95;;
41861;SDS011;27537;57.134;-2.136;2023-04-15T12:31:57;6.50;;;2.05;;
41861;SDS011;27537;57.134;-2.136;2023-04-15T12:34:31;7.63;;;1.95;;
41861;SDS011;27537;57.134;-2.136;2023-04-15T12:37:01;11.00;;;2.40;;
41861;SDS011;27537;57.134;-2.136;2023-04-15T12:39:31;4.10;;;1.50;;
41861;SDS011;27537;57.134;-2.136;2023-04-15T12:42:01;8.95;;;2.13;;
41861;SDS011;27537;57.134;-2.136;2023-04-15T12:44:30;7.35;;;1.70;;
41861;SDS011;27537;57.134;-2.136;2023-04-15T12:47:12;8.05;;;2.33;;
41861;SDS011;27537;57.134;-2.136;2023-04-15T12:49:40;8.95;;;2.40;;
41861;SDS011;27537;57.134;-2.136;2023-04-15T12:52:07;8.35;;;2.25;;
41861;SDS011;27537;57.134;-2.136;2023-04-15T12:54:48;8.23;;;1.80;;
41861;SDS011;27537;57.134;-2.136;2023-04-15T12:57:15;8.82;;;1.95;;
41861;SDS011;27537;57.134;-2.136;2023-04-15T12:59:45;6.82;;;1.95;;
41861;SDS011;27537;57.134;-2.136;2023-04-15T13:02:13;7.57;;;2.10;;
41861;SDS011;27537;57.134;-2.136;2023-04-15T13:04:40;5.05;;;1.77;;
41861;SDS011;27537;57.134;-2.136;2023-04-15T13:07:08;8.80;;;2.30;;
41861;SDS011;27537;57.134;-2.136;2023-04-15T13:09:35;8.18;;;2.20;;
41861;SDS011;27537;57.134;-2.136;2023-04-15T13:12:02;5.43;;;1.50;;
41861;SDS011;27537;57.134;-2.136;2023-04-15T13:14:31;7.18;;;1.67;;
41861;SDS011;27537;57.134;-2.136;2023-04-15T13:16:59;4.93;;;1.50;;
41861;SDS011;27537;57.134;-2.136;2023-04-15T13:19:26;9.13;;;2.17;;
41861;SDS011;27537;57.134;-2.136;2023-04-15T13:21:53;7.70;;;1.90;;
41861;SDS011;27537;57.134;-2.136;2023-04-15T13:24:19;6.78;;;1.95;;
41861;SDS011;27537;57.134;-2.136;2023-04-15T13:26:46;7.38;;;1.70;;
41861;SDS011;27537;57.134;-2.136;2023-04-15T13:29:15;8.02;;;2.08;;
41861;SDS011;27537;57.134;-2.136;2023-04-15T13:31:42;8.57;;;2.08;;
41861;SDS011;27537;57.134;-2.136;2023-04-15T13:34:09;11.63;;;2.30;;
41861;SDS011;27537;57.134;-2.136;2023-04-15T13:36:36;7.57;;;1.95;;
41861;SDS011;27537;57.134;-2.136;2023-04-15T13:39:03;7.35;;;2.35;;
41861;SDS011;27537;57.134;-2.136;2023-04-15T13:41:30;8.93;;;1.90;;
41861;SDS011;27537;57.134;-2.136;2023-04-15T13:43:57;7.13;;;1.95;;
41861;SDS011;27537;57.134;-2.136;2023-04-15T13:46:24;4.80;;;1.60;;
41861;SDS011;27537;57.134;-2.136;2023-04-15T13:48:51;7.57;;;1.77;;
41861;SDS011;27537;57.134;-2.136;2023-04-15T13:51:18;6.97;;;1.70;;
41861;SDS011;27537;57.134;-2.136;2023-04-15T13:53:45;9.30;;;2.00;;
41861;SDS011;27537;57.134;-2.136;2023-04-15T13:56:12;13.63;;;2.10;;
41861;SDS011;27537;57.134;-2.136;2023-04-15T13:58:39;6.68;;;1.70;;
41861;SDS011;27537;57.134;-2.136;2023-04-15T14:01:06;7.03;;;1.85;;
41861;SDS011;27537;57.134;-2.136;2023-04-15T14:03:34;9.13;;;1.98;;
41861;SDS011;27537;57.134;-2.136;2023-04-15T14:06:02;7.80;;;1.90;;
41861;SDS011;27537;57.134;-2.136;2023-04-15T14:08:30;9.10;;;1.77;;
41861;SDS011;27537;57.134;-2.136;2023-04-15T14:10:58;6.25;;;1.77;;
41861;SDS011;27537;57.134;-2.136;2023-04-15T14:13:25;8.55;;;2.10;;
41861;SDS011;27537;57.134;-2.136;2023-04-15T14:15:52;9.93;;;2.58;;
41861;SDS011;27537;57.134;-2.136;2023-04-15T14:18:19;12.02;;;2.75;;
41861;SDS011;27537;57.134;-2.136;2023-04-15T14:20:46;9.38;;;2.33;;
41861;SDS011;27537;57.134;-2.136;2023-04-15T14:23:12;9.75;;;2.45;;
41861;SDS011;27537;57.134;-2.136;2023-04-15T14:25:39;10.18;;;2.50;;
41861;SDS011;27537;57.134;-2.136;2023-04-15T14:28:06;9.35;;;2.45;;
41861;SDS011;27537;57.134;-2.136;2023-04-15T14:30:33;7.40;;;2.15;;
41861;SDS011;27537;57.134;-2.136;2023-04-15T14:33:00;8.43;;;2.80;;
41861;SDS011;27537;57.134;-2.136;2023-04-15T14:35:27;8.73;;;2.50;;
41861;SDS011;27537;57.134;-2.136;2023-04-15T14:37:55;11.02;;;2.42;;
41861;SDS011;27537;57.134;-2.136;2023-04-15T14:40:22;11.18;;;2.47;;
41861;SDS011;27537;57.134;-2.136;2023-04-15T14:42:48;8.85;;;2.50;;
41861;SDS011;27537;57.134;-2.136;2023-04-15T14:45:15;12.25;;;2.30;;
41861;SDS011;27537;57.134;-2.136;2023-04-15T14:47:43;9.40;;;2.67;;
41861;SDS011;27537;57.134;-2.136;2023-04-15T14:50:10;8.27;;;2.53;;
41861;SDS011;27537;57.134;-2.136;2023-04-15T14:52:37;12.50;;;2.45;;
41861;SDS011;27537;57.134;-2.136;2023-04-15T14:55:08;8.80;;;2.10;;
41861;SDS011;27537;57.134;-2.136;2023-04-15T14:57:36;11.32;;;2.55;;
41861;SDS011;27537;57.134;-2.136;2023-04-15T15:00:04;11.95;;;2.45;;
41861;SDS011;27537;57.134;-2.136;2023-04-15T15:02:32;12.88;;;2.55;;
41861;SDS011;27537;57.134;-2.136;2023-04-15T15:05:05;7.50;;;2.63;;
41861;SDS011;27537;57.134;-2.136;2023-04-15T15:07:34;9.32;;;2.25;;